Time;durP1;ratioP1;P1;durP2;ratioP2;P2;SDS_P1;SDS_P2;PMS_P1;PMS_P2;Temp;Humidity;BMP_temperature;BMP_pressure;BME280_temperature;BME280_humidity;BME280_pressure;Samples;Min_cycle;Max_cycle;Signal;HPM_P1;HPM_P2
2023/10/26 00:00:31;;;;;;;;;5.00;4.33;;;;;14.60;69.83;99301.16;5059748;28;45619;-71
2023/10/26 00:02:56;;;;;;;;;3.50;3.50;;;;;14.57;69.90;99294.38;5059591;28;45296;-71
2023/10/26 00:05:22;;;;;;;;;7.50;4.00;;;;;14.61;69.90;99292.13;5059474;28;46363;-71
2023/10/26 00:07:47;;;;;;;;;5.67;5.67;;;;;14.57;69.64;99286.34;5059504;28;46470;-71
2023/10/26 00:10:12;;;;;;;;;5.00;5.00;;;;;14.52;70.08;99293.34;5059306;28;45361;-70
2023/10/26 00:12:37;;;;;;;;;5.00;5.00;;;;;14.53;70.06;99282.47;5059436;28;45455;-71
2023/10/26 00:15:03;;;;;;;;;3.33;3.33;;;;;14.28;70.11;99236.75;5059159;28;47698;-70
2023/10/26 00:17:29;;;;;;;;;3.25;3.25;;;;;14.50;70.20;99287.41;5059363;28;45334;-70
2023/10/26 00:19:54;;;;;;;;;6.00;4.33;;;;;14.46;70.01;99270.94;5059510;28;45534;-70
2023/10/26 00:22:23;;;;;;;;;4.00;4.00;;;;;14.49;70.35;99269.72;5059601;28;45439;-71
2023/10/26 00:24:50;;;;;;;;;4.67;4.67;;;;;14.21;70.26;99227.88;5058509;28;47021;-70
2023/10/26 00:27:15;;;;;;;;;1.50;1.50;;;;;14.29;70.40;99246.41;5058848;28;45337;-71
2023/10/26 00:29:41;;;;;;;;;3.00;3.00;;;;;14.49;70.36;99267.03;5059245;28;45381;-71
2023/10/26 00:32:07;;;;;;;;;3.75;2.75;;;;;14.43;70.37;99266.00;5059365;28;45463;-71
2023/10/26 00:34:36;;;;;;;;;3.75;3.75;;;;;14.45;70.46;99260.44;5058849;28;47813;-71
2023/10/26 00:37:01;;;;;;;;;5.00;4.00;;;;;14.40;70.33;99258.34;5058905;28;45268;-71
2023/10/26 00:39:27;;;;;;;;;5.00;5.00;;;;;14.27;70.75;99247.66;5058836;28;45306;-70
2023/10/26 00:41:53;;;;;;;;;6.25;6.00;;;;;14.25;71.15;99241.69;5058972;28;45380;-71
2023/10/26 00:44:20;;;;;;;;;4.00;4.00;;;;;14.28;71.20;99250.13;5058774;28;47145;-71
2023/10/26 00:46:45;;;;;;;;;5.75;5.50;;;;;14.23;71.49;99247.25;5058786;28;45342;-71
2023/10/26 00:49:15;;;;;;;;;4.00;4.00;;;;;14.29;71.81;99254.44;5059051;28;45258;-71
2023/10/26 00:51:44;;;;;;;;;3.25;3.25;;;;;14.22;71.43;99240.25;5058894;28;45658;-71
2023/10/26 00:54:09;;;;;;;;;3.00;3.00;;;;;14.35;71.20;99250.13;5058381;28;46517;-69
2023/10/26 00:56:35;;;;;;;;;6.00;5.00;;;;;14.30;71.08;99245.38;5058460;28;45282;-71
2023/10/26 00:59:03;;;;;;;;;4.75;3.50;;;;;14.39;71.40;99250.53;5058652;28;45309;-70
2023/10/26 01:01:30;;;;;;;;;3.67;3.67;;;;;14.34;71.05;99248.47;5059030;28;45489;-70
2023/10/26 01:03:56;;;;;;;;;5.00;4.67;;;;;14.35;71.15;99246.63;5058373;28;47555;-71
2023/10/26 01:06:22;;;;;;;;;5.33;3.67;;;;;14.30;71.33;99253.41;5058432;28;45230;-70
2023/10/26 01:08:48;;;;;;;;;6.00;4.00;;;;;14.18;71.63;99222.97;5058978;28;45704;-71
2023/10/26 01:11:14;;;;;;;;;5.33;5.00;;;;;14.26;71.65;99230.78;5058606;28;45352;-71
2023/10/26 01:13:40;;;;;;;;;4.00;4.00;;;;;14.32;72.26;99232.63;5058121;28;45617;-70
2023/10/26 01:16:06;;;;;;;;;5.00;5.00;;;;;14.29;72.12;99230.38;5058248;28;45529;-71
2023/10/26 01:18:31;;;;;;;;;7.00;7.00;;;;;14.24;72.15;99232.84;5058394;28;45291;-71
2023/10/26 01:20:57;;;;;;;;;4.00;4.00;;;;;14.29;73.01;99238.41;5058485;28;45252;-71
2023/10/26 01:23:22;;;;;;;;;5.00;4.33;;;;;14.23;73.42;99222.38;5058158;28;46932;-71
2023/10/26 01:25:52;;;;;;;;;6.00;5.00;;;;;14.03;73.42;99184.94;5058186;28;45237;-70
2023/10/26 01:28:17;;;;;;;;;4.25;4.25;;;;;14.18;73.93;99216.78;5057932;28;45300;-70
2023/10/26 01:30:43;;;;;;;;;5.00;5.00;;;;;14.15;73.99;99212.69;5058462;28;45442;-71
2023/10/26 01:33:09;;;;;;;;;7.50;5.50;;;;;14.25;74.76;99223.81;5057584;28;46045;-70
2023/10/26 01:35:40;;;;;;;;;4.00;4.00;;;;;14.10;74.49;99198.28;5057928;28;45720;-70
2023/10/26 01:38:06;;;;;;;;;5.00;5.00;;;;;14.21;74.65;99221.72;5056913;28;45500;-71
2023/10/26 01:40:32;;;;;;;;;5.00;5.00;;;;;14.23;74.96;99214.34;5058165;28;45251;-71
2023/10/26 01:42:57;;;;;;;;;5.00;5.00;;;;;14.00;75.27;99185.31;5057678;28;45819;-70
2023/10/26 01:45:22;;;;;;;;;6.75;5.00;;;;;13.92;75.61;99158.81;5057607;28;54269;-71
2023/10/26 01:47:48;;;;;;;;;4.50;4.00;;;;;14.20;75.34;99202.19;5057740;28;46294;-70
2023/10/26 01:50:13;;;;;;;;;5.33;4.67;;;;;14.24;76.07;99213.31;5058088;28;45494;-69
2023/10/26 01:52:38;;;;;;;;;2.33;2.33;;;;;14.20;75.89;99210.22;5057533;28;46516;-70
2023/10/26 01:55:04;;;;;;;;;6.00;5.67;;;;;14.19;76.36;99208.56;5057617;28;45948;-70
2023/10/26 01:57:30;;;;;;;;;4.67;4.67;;;;;14.22;75.65;99202.84;5057636;28;45699;-70
2023/10/26 01:59:56;;;;;;;;;8.00;4.75;;;;;14.19;76.33;99205.88;5058069;28;45294;-70
2023/10/26 02:02:21;;;;;;;;;5.00;5.00;;;;;14.18;76.38;99201.56;5057397;28;45894;-71
2023/10/26 02:04:47;;;;;;;;;2.67;2.67;;;;;14.19;76.37;99197.88;5057505;28;45356;-70
2023/10/26 02:07:12;;;;;;;;;3.75;3.75;;;;;14.23;76.58;99188.44;5057818;28;45844;-70
2023/10/26 02:09:37;;;;;;;;;3.00;3.00;;;;;14.25;76.34;99189.06;5057809;28;45530;-70
2023/10/26 02:12:03;;;;;;;;;2.67;2.33;;;;;14.25;76.56;99191.72;5057298;28;46422;-70
2023/10/26 02:14:28;;;;;;;;;5.00;5.00;;;;;14.29;76.60;99186.78;5057276;28;45569;-71
2023/10/26 02:16:53;;;;;;;;;4.00;4.00;;;;;14.28;76.88;99175.28;5057646;28;45351;-73
2023/10/26 02:19:19;;;;;;;;;6.00;6.00;;;;;14.25;76.93;99167.66;5039611;28;45620;-70
2023/10/26 02:21:44;;;;;;;;;2.33;2.00;;;;;14.20;77.19;99153.25;5057117;28;47512;-70
2023/10/26 02:24:09;;;;;;;;;3.75;3.75;;;;;14.18;77.42;99168.69;5057445;28;45868;-72
2023/10/26 02:26:35;;;;;;;;;4.33;3.00;;;;;14.19;77.74;99165.78;5057151;28;45281;-70
2023/10/26 02:29:00;;;;;;;;;3.75;3.75;;;;;14.09;77.66;99148.53;5057455;28;45490;-70
2023/10/26 02:31:25;;;;;;;;;5.33;3.67;;;;;14.17;77.74;99156.34;5056958;28;46497;-71
2023/10/26 02:33:51;;;;;;;;;3.67;3.67;;;;;14.18;77.73;99164.16;5056861;28;45498;-70
2023/10/26 02:36:16;;;;;;;;;3.00;3.00;;;;;14.12;77.81;99148.94;5057268;28;45226;-71
2023/10/26 02:38:41;;;;;;;;;2.00;2.00;;;;;14.15;78.37;99147.72;5057310;28;45479;-72
2023/10/26 02:41:07;;;;;;;;;2.00;2.00;;;;;14.19;77.95;99148.94;5056914;28;47528;-70
2023/10/26 02:43:33;;;;;;;;;4.00;4.00;;;;;14.19;77.95;99138.25;5038981;28;45453;-70
2023/10/26 02:46:08;;;;;;;;;0.00;0.00;;;;;13.86;77.86;99084.84;5057135;28;45520;-70
2023/10/26 02:48:34;;;;;;;;;2.00;2.00;;;;;14.20;77.70;99135.38;5058888;28;45507;-70
2023/10/26 02:51:00;;;;;;;;;4.00;4.00;;;;;14.07;78.09;99124.69;5060322;28;46097;-69
2023/10/26 02:53:25;;;;;;;;;4.33;3.00;;;;;14.08;78.69;99131.69;5060402;28;45443;-69
2023/10/26 02:55:50;;;;;;;;;3.67;3.67;;;;;13.96;78.83;99110.09;5060614;28;45793;-70
2023/10/26 02:58:16;;;;;;;;;4.00;3.00;;;;;14.06;79.07;99123.06;5042481;28;45374;-70
2023/10/26 03:00:41;;;;;;;;;3.00;3.00;;;;;14.05;79.52;99124.09;5060170;28;47121;-70
2023/10/26 03:03:06;;;;;;;;;5.00;2.67;;;;;14.04;79.57;99110.94;5060415;28;45332;-70
2023/10/26 03:05:33;;;;;;;;;2.67;2.67;;;;;13.96;79.36;99082.56;5060588;28;45408;-71
2023/10/26 03:07:59;;;;;;;;;3.67;3.67;;;;;14.01;79.57;99096.09;5060455;28;45606;-69
2023/10/26 03:10:25;;;;;;;;;3.33;2.00;;;;;13.99;80.04;99096.31;5042062;28;46309;-71
2023/10/26 03:12:52;;;;;;;;;4.00;2.33;;;;;13.96;80.03;99083.38;5060016;28;45373;-70
2023/10/26 03:15:17;;;;;;;;;3.00;3.00;;;;;13.99;80.01;99079.47;5060253;28;45442;-70
2023/10/26 03:17:43;;;;;;;;;2.00;2.00;;;;;13.85;80.27;99062.66;5060333;28;45617;-70
2023/10/26 03:20:09;;;;;;;;;2.67;2.00;;;;;13.78;80.35;99051.13;5060140;28;46479;-71
2023/10/26 03:22:34;;;;;;;;;3.00;2.67;;;;;13.84;80.89;99061.00;5060135;28;45294;-70
2023/10/26 03:25:00;;;;;;;;;2.67;2.67;;;;;13.89;80.99;99071.06;5060267;28;45286;-70
2023/10/26 03:27:25;;;;;;;;;4.00;3.00;;;;;13.89;81.36;99073.72;5059959;28;45412;-70
2023/10/26 03:29:50;;;;;;;;;4.25;3.25;;;;;13.76;81.34;99047.00;5059822;28;46820;-71
2023/10/26 03:32:16;;;;;;;;;4.00;3.00;;;;;13.91;81.30;99061.00;5059868;28;45342;-71
2023/10/26 03:34:41;;;;;;;;;4.00;2.00;;;;;13.98;81.09;99067.97;5060133;28;45416;-70
2023/10/26 03:37:06;;;;;;;;;3.00;3.00;;;;;13.88;81.39;99042.69;5060208;28;45560;-69
2023/10/26 03:39:35;;;;;;;;;3.33;3.33;;;;;13.96;81.80;99064.69;5059021;28;59424;-70
2023/10/26 03:42:00;;;;;;;;;3.00;3.00;;;;;13.96;81.92;99058.50;5059685;28;45245;-71
2023/10/26 03:44:25;;;;;;;;;3.33;2.67;;;;;13.98;81.62;99059.13;5059578;28;45589;-71
2023/10/26 03:46:52;;;;;;;;;2.00;2.00;;;;;14.03;81.57;99059.34;5059861;28;45217;-70
2023/10/26 03:49:20;;;;;;;;;2.00;2.00;;;;;14.07;81.63;99060.56;5059505;28;46658;-70
2023/10/26 03:51:46;;;;;;;;;2.33;2.33;;;;;14.09;81.74;99063.03;5058145;28;45323;-70
2023/10/26 03:54:12;;;;;;;;;2.00;1.00;;;;;14.08;81.22;99062.22;5059549;28;45478;-71
2023/10/26 03:56:38;;;;;;;;;3.00;2.00;;;;;14.20;81.55;99062.38;5059369;28;45486;-71
2023/10/26 03:59:03;;;;;;;;;3.25;2.25;;;;;14.17;81.69;99052.09;5059096;28;45444;-70
2023/10/26 04:01:28;;;;;;;;;3.75;2.00;;;;;14.18;82.26;99041.22;5040477;28;45203;-69
2023/10/26 04:03:54;;;;;;;;;1.00;1.00;;;;;13.69;82.13;98970.41;5059343;28;45172;-70
2023/10/26 04:06:19;;;;;;;;;2.00;2.00;;;;;14.18;82.45;99054.56;5059406;28;45249;-69
2023/10/26 04:08:44;;;;;;;;;2.00;2.00;;;;;14.02;82.35;99024.81;5059387;28;47623;-70
2023/10/26 04:11:16;;;;;;;;;2.00;2.00;;;;;14.16;83.01;99045.94;5058932;28;48665;-70
2023/10/26 04:13:42;;;;;;;;;3.00;3.00;;;;;14.11;82.78;99039.59;5059063;28;45471;-70
2023/10/26 04:16:08;;;;;;;;;2.50;2.00;;;;;14.15;83.15;99041.63;5058960;28;49390;-69
2023/10/26 04:18:33;;;;;;;;;5.00;4.00;;;;;13.55;82.73;98939.38;5058894;28;47381;-70
2023/10/26 04:20:59;;;;;;;;;2.67;2.00;;;;;14.19;82.81;99048.19;5059164;28;45255;-70
2023/10/26 04:23:24;;;;;;;;;2.00;1.00;;;;;14.12;82.79;99036.72;5059043;28;45232;-70
2023/10/26 04:25:50;;;;;;;;;2.00;2.00;;;;;14.23;82.78;99044.09;5059305;28;45210;-70
2023/10/26 04:28:16;;;;;;;;;4.00;4.00;;;;;14.21;83.07;99027.44;5058287;28;45826;-70
2023/10/26 04:30:48;;;;;;;;;5.33;3.00;;;;;14.25;82.93;99039.38;5058683;28;45314;-70
2023/10/26 04:33:14;;;;;;;;;3.00;3.00;;;;;14.27;82.83;99029.28;5058485;28;45158;-69
2023/10/26 04:35:42;;;;;;;;;2.33;2.33;;;;;14.30;82.92;99031.53;5058734;28;45482;-70
2023/10/26 04:38:08;;;;;;;;;2.50;2.50;;;;;14.33;82.75;99024.94;5058348;28;45707;-71
2023/10/26 04:40:34;;;;;;;;;2.67;2.67;;;;;14.30;83.18;99023.50;5058687;28;45385;-71
2023/10/26 04:42:59;;;;;;;;;3.00;3.00;;;;;14.33;83.21;99024.94;5058468;28;45355;-71
2023/10/26 04:45:24;;;;;;;;;4.00;4.00;;;;;14.37;83.29;99017.31;5058725;28;45688;-71
2023/10/26 04:47:50;;;;;;;;;6.00;4.00;;;;;14.41;83.25;99010.50;5058612;28;46942;-71
2023/10/26 04:50:15;;;;;;;;;3.00;3.00;;;;;14.43;82.89;99011.16;5058269;28;45495;-71
2023/10/26 04:52:41;;;;;;;;;3.00;3.00;;;;;14.28;82.87;98977.47;5058597;28;45308;-70
2023/10/26 04:55:06;;;;;;;;;4.00;3.00;;;;;14.49;82.93;99003.13;5058883;28;45376;-70
2023/10/26 04:57:32;;;;;;;;;3.00;3.00;;;;;14.44;83.02;98991.44;5057951;28;45700;-70
2023/10/26 04:59:57;;;;;;;;;4.00;4.00;;;;;14.48;83.64;99001.47;5058489;28;45244;-70
2023/10/26 05:02:22;;;;;;;;;8.00;8.00;;;;;14.54;83.17;99010.50;5058475;28;45539;-70
2023/10/26 05:04:47;;;;;;;;;2.33;2.33;;;;;14.50;83.07;98996.75;5058754;28;45483;-70
2023/10/26 05:07:13;;;;;;;;;2.00;2.00;;;;;14.59;83.05;99008.00;5040219;28;46389;-69
2023/10/26 05:09:38;;;;;;;;;3.00;2.00;;;;;14.63;83.18;98992.38;5058146;28;45478;-69
2023/10/26 05:12:04;;;;;;;;;2.67;2.67;;;;;14.59;83.16;98986.59;5057914;28;45262;-69
2023/10/26 05:14:29;;;;;;;;;3.00;3.00;;;;;14.49;83.52;98972.88;5058345;28;45522;-70
2023/10/26 05:16:54;;;;;;;;;3.33;2.00;;;;;14.54;83.69;98965.03;5057737;28;53497;-70
2023/10/26 05:19:20;;;;;;;;;3.33;2.67;;;;;14.28;83.48;98918.66;5058176;28;45225;-70
2023/10/26 05:21:45;;;;;;;;;3.33;2.00;;;;;14.54;83.48;98954.34;5058251;28;45687;-70
2023/10/26 05:24:10;;;;;;;;;5.33;3.67;;;;;14.55;83.15;98958.66;5058205;28;45257;-70
2023/10/26 05:26:36;;;;;;;;;4.00;4.00;;;;;14.60;83.42;98966.84;5039372;28;47048;-72
2023/10/26 05:29:03;;;;;;;;;5.00;5.00;;;;;14.19;83.07;98889.69;5057980;28;46785;-70
2023/10/26 05:31:28;;;;;;;;;3.00;3.00;;;;;14.61;83.25;98965.81;5058239;28;45372;-70
2023/10/26 05:33:54;;;;;;;;;4.67;4.00;;;;;14.59;83.73;98966.03;5058093;28;45459;-70
2023/10/26 05:36:19;;;;;;;;;4.00;4.00;;;;;14.58;83.58;98951.03;5057975;28;46175;-70
2023/10/26 05:38:45;;;;;;;;;5.33;4.00;;;;;14.57;84.03;98962.75;5057128;28;53284;-71
2023/10/26 05:41:11;;;;;;;;;4.00;4.00;;;;;14.49;83.76;98943.47;5057539;28;45459;-71
2023/10/26 05:43:36;;;;;;;;;5.33;5.00;;;;;14.63;84.11;98953.09;5057889;28;45475;-71
2023/10/26 05:46:03;;;;;;;;;5.00;5.00;;;;;14.29;84.09;98895.41;5057322;28;45570;-71
2023/10/26 05:48:30;;;;;;;;;8.67;5.00;;;;;14.68;83.82;98950.56;5057124;28;45455;-70
2023/10/26 05:50:55;;;;;;;;;4.00;4.00;;;;;14.68;83.85;98952.44;5057301;28;45269;-69
2023/10/26 05:53:20;;;;;;;;;3.33;3.33;;;;;14.71;84.07;98965.38;5057426;28;45260;-71
2023/10/26 05:55:56;;;;;;;;;6.00;5.33;;;;;14.71;84.26;98968.06;5057223;28;46519;-70
2023/10/26 05:58:21;;;;;;;;;6.67;5.33;;;;;14.72;84.23;98967.84;5057370;28;45894;-70
2023/10/26 06:00:47;;;;;;;;;4.33;4.00;;;;;14.78;84.42;98972.31;5057401;28;45323;-70
2023/10/26 06:03:12;;;;;;;;;3.33;3.33;;;;;14.83;84.35;98975.19;5057618;28;45443;-70
2023/10/26 06:05:37;;;;;;;;;3.50;3.50;;;;;14.77;84.74;98959.97;5057225;28;47637;-71
2023/10/26 06:08:03;;;;;;;;;1.75;1.75;;;;;14.93;84.47;98974.72;5057561;28;45242;-71
2023/10/26 06:10:28;;;;;;;;;1.50;1.50;;;;;14.89;84.26;98955.59;5057358;28;45498;-71
2023/10/26 06:12:54;;;;;;;;;2.00;2.00;;;;;15.00;84.88;98988.03;5057264;28;45321;-71
2023/10/26 06:15:22;;;;;;;;;1.25;1.25;;;;;14.85;84.73;98972.31;5055446;28;46041;-72
2023/10/26 06:17:48;;;;;;;;;1.75;1.75;;;;;15.08;84.81;99025.28;5056705;28;45336;-70
2023/10/26 06:20:13;;;;;;;;;1.00;1.00;;;;;14.87;85.32;98976.41;5053833;28;45770;-71
2023/10/26 06:22:38;;;;;;;;;1.75;1.75;;;;;15.04;84.69;99005.34;5038365;28;45466;-70
2023/10/26 06:25:05;;;;;;;;;0.75;0.00;;;;;15.14;84.49;99014.50;5037637;28;46470;-70
2023/10/26 06:27:31;;;;;;;;;0.50;0.50;;;;;15.16;84.08;99014.28;5055904;28;45598;-71
2023/10/26 06:29:57;;;;;;;;;0.50;0.00;;;;;15.01;83.27;98995.84;5057047;28;45363;-71
2023/10/26 06:32:23;;;;;;;;;1.50;0.00;;;;;15.15;81.53;99009.97;5036761;28;45410;-72
2023/10/26 06:34:50;;;;;;;;;2.00;1.00;;;;;15.15;80.95;99007.31;5056786;28;46809;-71
2023/10/26 06:37:16;;;;;;;;;0.00;0.00;;;;;15.11;80.48;99000.75;5038891;28;45450;-71
2023/10/26 06:39:41;;;;;;;;;1.75;1.00;;;;;14.84;80.12;98960.78;5037999;28;45802;-71
2023/10/26 06:42:06;;;;;;;;;0.75;0.00;;;;;15.23;79.16;99027.66;5056480;28;45460;-71
2023/10/26 06:44:32;;;;;;;;;2.00;0.25;;;;;15.16;78.80;99006.25;5056170;28;45427;-76
2023/10/26 06:46:57;;;;;;;;;2.75;1.75;;;;;15.14;78.53;99000.31;5056597;28;45325;-71
2023/10/26 06:49:22;;;;;;;;;3.00;2.00;;;;;15.13;78.51;98996.00;5056733;28;45283;-71
2023/10/26 06:51:48;;;;;;;;;3.00;2.00;;;;;15.24;78.19;99029.31;5056400;28;45590;-69
2023/10/26 06:54:15;;;;;;;;;2.25;1.75;;;;;15.27;77.71;99044.94;5054118;28;46713;-71
2023/10/26 06:56:41;;;;;;;;;4.00;3.00;;;;;15.27;77.08;99055.63;5055540;28;45295;-70
2023/10/26 06:59:06;;;;;;;;;5.00;3.25;;;;;15.28;77.34;99058.09;5054417;28;45511;-71
2023/10/26 07:01:33;;;;;;;;;12.00;10.33;;;;;15.28;77.09;99074.16;5054931;28;45477;-69
2023/10/26 07:03:59;;;;;;;;;10.00;8.00;;;;;15.19;76.63;99043.31;5054901;28;46004;-69
2023/10/26 07:06:24;;;;;;;;;2.50;1.50;;;;;15.16;76.88;99038.38;5038503;28;45345;-71
2023/10/26 07:08:50;;;;;;;;;11.33;11.33;;;;;15.28;76.00;99052.75;5056494;28;45411;-71
2023/10/26 07:11:15;;;;;;;;;3.00;3.00;;;;;15.26;76.31;99052.13;5056292;28;45383;-69
2023/10/26 07:13:41;;;;;;;;;6.25;3.75;;;;;15.42;76.51;99072.22;5053232;28;45774;-69
2023/10/26 07:16:06;;;;;;;;;12.67;9.33;;;;;15.40;75.65;99076.97;5056336;28;45311;-69
2023/10/26 07:18:32;;;;;;;;;6.00;3.00;;;;;15.42;75.33;99096.34;5056396;28;45406;-70
2023/10/26 07:20:58;;;;;;;;;1.50;1.50;;;;;15.41;75.49;99092.81;5056434;28;45424;-69
2023/10/26 07:23:23;;;;;;;;;5.50;3.00;;;;;15.38;75.19;99101.28;5055604;28;46357;-70
2023/10/26 07:25:48;;;;;;;;;6.00;4.00;;;;;15.48;75.41;99107.00;5056617;28;45482;-69
2023/10/26 07:28:13;;;;;;;;;2.75;2.50;;;;;15.49;74.52;99103.28;5055994;28;45188;-69
2023/10/26 07:30:40;;;;;;;;;3.00;3.00;;;;;15.51;74.47;99106.56;5056348;28;45209;-69
2023/10/26 07:33:06;;;;;;;;;3.25;1.00;;;;;15.57;75.00;99130.84;5055947;28;46454;-68
2023/10/26 07:35:38;;;;;;;;;4.75;2.75;;;;;15.35;73.70;99090.19;5055647;28;45489;-73
2023/10/26 07:38:04;;;;;;;;;3.50;2.00;;;;;15.47;74.09;99115.25;5052399;28;45502;-80
2023/10/26 07:40:29;;;;;;;;;8.00;5.00;;;;;15.54;74.36;99118.69;5057656;28;45484;-69
2023/10/26 07:42:54;;;;;;;;;3.00;2.00;;;;;15.56;73.94;99118.47;5040733;28;47189;-70
2023/10/26 07:45:20;;;;;;;;;1.00;1.00;;;;;15.38;73.44;99093.25;5052566;28;45456;-69
2023/10/26 07:47:46;;;;;;;;;1.00;1.00;;;;;15.64;73.51;99142.38;5059172;28;45398;-69
2023/10/26 07:50:11;;;;;;;;;1.00;1.00;;;;;15.62;73.05;99139.09;5059462;28;45393;-68
2023/10/26 07:52:37;;;;;;;;;2.50;2.00;;;;;15.61;73.04;99132.88;5058851;28;46757;-70
2023/10/26 07:55:02;;;;;;;;;4.25;1.25;;;;;15.72;73.26;99163.53;5050238;28;45221;-73
2023/10/26 07:57:29;;;;;;;;;4.00;2.25;;;;;15.72;72.78;99150.16;5054565;28;45550;-70
2023/10/26 07:59:55;;;;;;;;;4.00;3.00;;;;;15.66;72.74;99137.63;5059265;28;45331;-69
2023/10/26 08:02:20;;;;;;;;;1.25;1.00;;;;;15.61;72.33;99134.75;5057007;28;46093;-72
2023/10/26 08:04:48;;;;;;;;;6.50;4.75;;;;;15.60;72.76;99146.50;5056504;28;45624;-75
2023/10/26 08:07:13;;;;;;;;;1.50;1.50;;;;;15.66;71.94;99146.47;5055935;28;46917;-69
2023/10/26 08:09:38;;;;;;;;;4.50;2.25;;;;;15.74;71.74;99143.53;5039895;28;45353;-70
2023/10/26 08:12:04;;;;;;;;;4.00;1.00;;;;;15.77;72.08;99171.75;5057862;28;46540;-72
2023/10/26 08:14:30;;;;;;;;;3.00;1.50;;;;;15.76;71.68;99156.72;5057054;28;45267;-68
2023/10/26 08:16:57;;;;;;;;;1.00;0.50;;;;;15.89;71.30;99180.75;5058071;28;45321;-69
2023/10/26 08:19:24;;;;;;;;;2.00;1.00;;;;;15.83;71.27;99168.22;5058492;28;45601;-69
2023/10/26 08:21:49;;;;;;;;;4.00;3.00;;;;;15.98;71.32;99179.44;5058062;28;47078;-69
2023/10/26 08:24:15;;;;;;;;;4.00;3.25;;;;;16.07;71.11;99180.84;5038990;28;45502;-69
2023/10/26 08:26:40;;;;;;;;;5.00;5.00;;;;;16.13;70.80;99185.31;5054877;28;45535;-70
2023/10/26 08:29:06;;;;;;;;;0.00;0.00;;;;;16.16;69.61;99188.59;5056635;28;45557;-69
2023/10/26 08:31:35;;;;;;;;;2.25;2.25;;;;;16.18;70.26;99191.88;5057229;28;45685;-69
2023/10/26 08:34:01;;;;;;;;;6.25;4.00;;;;;16.21;69.75;99188.75;5057487;28;45527;-72
2023/10/26 08:36:26;;;;;;;;;2.75;0.75;;;;;16.05;70.11;99149.94;5057434;28;45584;-74
2023/10/26 08:38:51;;;;;;;;;3.00;2.75;;;;;16.17;69.98;99158.88;5056354;28;45782;-68
2023/10/26 08:41:17;;;;;;;;;4.50;2.00;;;;;16.28;69.25;99186.88;5054979;28;45649;-70
2023/10/26 08:43:43;;;;;;;;;3.75;3.00;;;;;16.38;69.87;99188.00;5055401;28;45374;-72
2023/10/26 08:46:10;;;;;;;;;4.00;2.00;;;;;16.39;69.32;99184.28;5050488;28;45804;-70
2023/10/26 08:48:38;;;;;;;;;1.00;0.00;;;;;16.40;68.51;99195.81;5036863;28;45642;-71
2023/10/26 08:51:05;;;;;;;;;2.00;1.00;;;;;16.38;68.87;99195.22;5056016;28;46518;-69
2023/10/26 08:53:31;;;;;;;;;3.25;1.25;;;;;16.35;68.78;99193.81;5054017;28;45728;-69
2023/10/26 08:55:58;;;;;;;;;4.75;1.75;;;;;16.36;68.42;99190.06;5054587;28;45306;-87
2023/10/26 08:58:23;;;;;;;;;1.25;1.00;;;;;16.30;68.38;99198.19;5054786;28;45526;-70
2023/10/26 09:00:51;;;;;;;;;0.75;0.75;;;;;16.25;68.54;99206.91;5054184;28;47386;-70
2023/10/26 09:03:16;;;;;;;;;4.25;2.00;;;;;15.95;69.28;99158.44;5054913;28;45568;-71
2023/10/26 09:05:56;;;;;;;;;1.00;1.00;;;;;16.02;69.44;99172.63;5054664;28;45682;-70
2023/10/26 09:08:23;;;;;;;;;2.75;1.25;;;;;16.03;69.54;99168.91;5056391;28;45471;-70
2023/10/26 09:10:50;;;;;;;;;3.50;3.50;;;;;16.30;69.20;99206.25;5057540;28;46606;-69
2023/10/26 09:13:23;;;;;;;;;3.25;3.00;;;;;16.33;69.12;99211.16;5057602;28;45495;-69
2023/10/26 09:15:50;;;;;;;;;5.25;4.25;;;;;16.35;69.46;99209.06;5056402;28;45416;-70
2023/10/26 09:18:15;;;;;;;;;2.00;1.00;;;;;16.34;69.42;99210.13;5055398;28;45503;-69
2023/10/26 09:20:44;;;;;;;;;3.25;2.50;;;;;16.31;69.34;99203.34;5056772;28;46748;-71
2023/10/26 09:23:27;;;;;;;;;1.00;1.00;;;;;16.31;69.46;99210.56;5057334;28;45528;-69
2023/10/26 09:25:59;;;;;;;;;1.00;1.00;;;;;16.20;69.28;99195.16;5056046;28;45560;-68
2023/10/26 09:28:25;;;;;;;;;2.75;1.00;;;;;16.32;68.88;99229.13;5057405;28;45402;-69
2023/10/26 09:30:57;;;;;;;;;1.75;1.75;;;;;16.31;69.53;99237.38;5056790;28;45836;-69
2023/10/26 09:33:26;;;;;;;;;4.25;2.75;;;;;16.29;69.48;99221.50;5057493;28;45283;-69
2023/10/26 09:35:52;;;;;;;;;4.00;3.00;;;;;16.38;69.21;99230.09;5056622;28;46400;-68
2023/10/26 09:38:32;;;;;;;;;6.00;3.25;;;;;16.01;69.15;99176.31;5056376;28;45585;-69
2023/10/26 09:40:59;;;;;;;;;1.50;1.50;;;;;16.36;69.05;99218.75;5049466;28;46359;-69
2023/10/26 09:43:24;;;;;;;;;3.00;3.00;;;;;16.40;68.70;99241.41;5055681;28;45542;-69
2023/10/26 09:45:49;;;;;;;;;4.50;3.25;;;;;16.42;68.63;99234.81;5055383;28;45465;-69
2023/10/26 09:48:16;;;;;;;;;0.75;0.00;;;;;16.51;68.29;99245.28;5055301;28;45285;-70
2023/10/26 09:50:45;;;;;;;;;1.50;1.00;;;;;16.51;67.35;99245.28;5056563;28;47343;-69
2023/10/26 09:53:11;;;;;;;;;3.75;2.50;;;;;16.59;67.75;99245.81;5036842;28;45434;-71
2023/10/26 09:55:37;;;;;;;;;3.25;1.75;;;;;16.46;66.86;99205.69;5055086;28;45514;-69
2023/10/26 09:58:05;;;;;;;;;2.00;1.00;;;;;16.73;66.66;99238.50;5038214;28;45541;-70
2023/10/26 10:00:33;;;;;;;;;1.50;1.00;;;;;16.78;66.56;99214.50;5052650;28;47134;-75
2023/10/26 10:03:16;;;;;;;;;4.00;2.00;;;;;16.83;66.69;99216.53;5054395;28;45508;-69
2023/10/26 10:05:44;;;;;;;;;3.50;2.00;;;;;16.95;65.95;99212.88;5055799;28;45332;-70
2023/10/26 10:08:10;;;;;;;;;4.50;3.50;;;;;16.97;65.19;99216.16;5055588;28;45317;-69
2023/10/26 10:10:36;;;;;;;;;5.75;2.00;;;;;16.99;65.20;99195.28;5054553;28;46485;-69
2023/10/26 10:13:02;;;;;;;;;4.25;1.75;;;;;16.99;65.18;99189.09;5036305;28;45326;-68
2023/10/26 10:15:39;;;;;;;;;2.50;2.50;;;;;17.10;65.53;99199.09;5055362;28;45363;-70
2023/10/26 10:18:05;;;;;;;;;1.50;1.50;;;;;17.23;65.20;99216.94;5035415;28;45339;-68
2023/10/26 10:20:35;;;;;;;;;2.50;1.50;;;;;17.25;64.42;99212.16;5030137;28;46500;-68
2023/10/26 10:23:02;;;;;;;;;2.00;2.00;;;;;17.25;64.08;99207.59;5051454;28;45542;-69
2023/10/26 10:25:49;;;;;;;;;1.00;1.00;;;;;17.33;64.10;99209.97;5056651;28;45412;-69
2023/10/26 10:28:14;;;;;;;;;5.75;2.50;;;;;17.39;63.69;99232.44;5036772;28;45479;-69
2023/10/26 10:30:59;;;;;;;;;6.25;1.50;;;;;17.36;63.83;99232.06;5044555;28;46560;-69
2023/10/26 10:33:28;;;;;;;;;3.00;3.00;;;;;17.40;63.74;99233.25;5035393;28;45680;-69
2023/10/26 10:36:01;;;;;;;;;2.00;2.00;;;;;17.47;63.32;99223.25;5056146;28;45536;-70
2023/10/26 10:38:27;;;;;;;;;44.00;38.67;;;;;17.47;62.64;99224.09;5054542;28;45628;-69
2023/10/26 10:40:55;;;;;;;;;2.50;2.50;;;;;17.47;62.30;99225.94;5051054;28;46630;-70
2023/10/26 10:43:46;;;;;;;;;4.00;3.00;;;;;17.46;62.77;99238.56;5051656;28;46652;-69
2023/10/26 10:46:16;;;;;;;;;2.50;2.00;;;;;17.44;62.78;99234.47;5053319;28;45461;-69
2023/10/26 10:49:06;;;;;;;;;2.75;0.50;;;;;17.50;62.84;99244.28;5056472;28;45291;-69
2023/10/26 10:51:37;;;;;;;;;4.00;1.50;;;;;17.56;62.85;99243.38;5053701;28;47550;-70
2023/10/26 10:54:06;;;;;;;;;3.25;2.00;;;;;17.64;62.79;99240.41;5056245;28;45552;-71
2023/10/26 10:56:38;;;;;;;;;2.25;1.00;;;;;17.60;61.53;99234.63;5046584;28;45438;-72
2023/10/26 10:59:25;;;;;;;;;2.50;2.00;;;;;17.71;62.36;99238.47;5036920;28;45191;-69
2023/10/26 11:02:05;;;;;;;;;2.00;2.00;;;;;17.60;61.21;99220.38;5055979;28;46661;-72
2023/10/26 11:04:31;;;;;;;;;5.25;2.50;;;;;17.70;61.52;99228.78;5056271;28;45424;-70
2023/10/26 11:06:57;;;;;;;;;1.75;1.25;;;;;17.69;61.24;99219.06;5038656;28;45523;-69
2023/10/26 11:09:27;;;;;;;;;1.00;1.00;;;;;17.64;61.41;99208.97;5040344;28;45320;-72
2023/10/26 11:11:54;;;;;;;;;4.00;3.50;;;;;17.71;61.64;99206.22;5059089;28;46604;-70
2023/10/26 11:14:20;;;;;;;;;3.25;2.25;;;;;17.86;61.67;99228.16;5058633;28;46138;-71
2023/10/26 11:16:48;;;;;;;;;4.25;2.00;;;;;17.80;61.22;99218.28;5040706;28;45322;-69
2023/10/26 11:19:13;;;;;;;;;1.00;1.00;;;;;17.49;61.06;99156.69;5040308;28;45392;-70
2023/10/26 11:21:39;;;;;;;;;3.50;3.00;;;;;17.92;61.11;99221.03;5059917;28;45520;-71
2023/10/26 11:24:06;;;;;;;;;1.00;1.00;;;;;17.74;60.59;99200.38;5060183;28;45517;-70
2023/10/26 11:26:31;;;;;;;;;1.50;1.50;;;;;17.90;61.34;99218.56;5060094;28;45387;-71
2023/10/26 11:28:56;;;;;;;;;3.00;3.00;;;;;17.62;60.71;99172.63;5059862;28;45443;-71
2023/10/26 11:31:39;;;;;;;;;5.00;2.50;;;;;17.77;60.99;99191.03;5059077;28;46086;-71